createdAt,value
2022-08-19T00:03:10.453Z,71.49
2022-08-19T00:08:18.149Z,71.36
2022-08-19T00:13:22.038Z,71.43
2022-08-19T00:18:25.927Z,71.48
2022-08-19T00:23:29.910Z,71.44
2022-08-19T00:28:34.718Z,71.38
2022-08-19T00:33:39.781Z,71.35
2022-08-19T00:38:44.841Z,71.55
2022-08-19T00:44:12.371Z,71.60
2022-08-19T00:49:31.027Z,71.70
2022-08-19T00:54:38.073Z,71.60
2022-08-19T01:00:00.499Z,71.62
2022-08-19T01:05:19.699Z,71.54
2022-08-19T01:10:29.412Z,71.57
2022-08-19T01:15:47.773Z,71.40
2022-08-19T01:20:53.749Z,71.54
2022-08-19T01:25:57.806Z,71.75
2022-08-19T01:31:08.021Z,71.63
2022-08-19T01:36:17.394Z,71.92
2022-08-19T01:41:20.912Z,72.05
2022-08-19T01:46:25.215Z,72.28
2022-08-19T01:51:29.935Z,72.47
2022-08-19T01:56:43.248Z,72.63
2022-08-19T02:01:46.961Z,72.52
2022-08-19T02:06:50.597Z,72.58
2022-08-19T02:11:54.954Z,72.72
2022-08-19T02:17:00.868Z,72.92
2022-08-19T02:22:05.176Z,73.57
2022-08-19T02:27:08.858Z,73.86
2022-08-19T02:32:13.158Z,74.45
2022-08-19T02:37:36.448Z,74.72
2022-08-19T02:42:42.261Z,75.02
2022-08-19T02:47:45.722Z,74.72
2022-08-19T02:52:49.614Z,74.55
2022-08-19T02:57:53.223Z,74.59
2022-08-19T03:02:57.413Z,74.39
2022-08-19T03:08:01.882Z,74.34
2022-08-19T03:13:06.367Z,74.14
2022-08-19T03:18:11.089Z,73.95
2022-08-19T03:23:18.583Z,73.82
2022-08-19T03:28:22.741Z,73.63
2022-08-19T03:33:29.898Z,73.48
2022-08-19T03:38:35.050Z,73.37
2022-08-19T03:43:41.199Z,73.26
2022-08-19T03:48:46.957Z,73.15
2022-08-19T03:53:51.571Z,73.00
2022-08-19T03:58:58.892Z,72.87
2022-08-19T04:04:04.902Z,72.72
2022-08-19T04:09:12.099Z,72.43
2022-08-19T04:14:21.169Z,72.19
2022-08-19T04:19:26.923Z,71.96
2022-08-19T04:24:32.498Z,71.70
2022-08-19T04:29:36.045Z,71.44
2022-08-19T04:35:03.192Z,71.17
2022-08-19T04:40:27.586Z,70.76
2022-08-19T04:45:36.271Z,70.52
2022-08-19T04:50:48.522Z,70.21
2022-08-19T04:55:53.723Z,70.03
2022-08-19T05:01:01.351Z,69.84
2022-08-19T05:06:11.850Z,69.53
2022-08-19T05:11:26.739Z,69.33
2022-08-19T05:16:30.906Z,69.10
2022-08-19T05:21:54.675Z,68.94
2022-08-19T05:26:58.541Z,68.41
2022-08-19T05:32:07.082Z,67.92
2022-08-19T05:37:13.691Z,66.78
2022-08-19T05:42:18.013Z,64.97
2022-08-19T05:47:25.494Z,64.88
2022-08-19T05:52:30.738Z,64.17
2022-08-19T05:57:35.773Z,63.64
2022-08-19T06:02:40.481Z,63.44
2022-08-19T06:07:44.722Z,63.20
2022-08-19T06:12:50.348Z,63.35
2022-08-19T06:17:55.263Z,63.26
2022-08-19T06:23:00.820Z,63.42
2022-08-19T06:28:15.030Z,63.53
2022-08-19T06:33:27.534Z,63.02
2022-08-19T06:38:32.449Z,62.99
2022-08-19T06:43:43.025Z,62.49
2022-08-19T06:48:48.746Z,63.01
2022-08-19T06:53:55.711Z,63.11
2022-08-19T06:59:01.465Z,62.90
2022-08-19T07:04:12.328Z,61.21
2022-08-19T07:09:18.632Z,60.65
2022-08-19T07:14:28.512Z,59.38
2022-08-19T07:19:32.958Z,58.18
2022-08-19T07:24:39.160Z,57.89
2022-08-19T07:29:57.314Z,56.87
2022-08-19T07:35:01.871Z,56.18
2022-08-19T07:40:08.336Z,56.07
2022-08-19T07:45:12.146Z,55.51
2022-08-19T07:50:21.333Z,55.98
2022-08-19T07:55:41.739Z,55.75
2022-08-19T08:00:49.922Z,55.61
2022-08-19T08:06:12.106Z,55.32
2022-08-19T08:11:20.009Z,54.82
2022-08-19T08:16:26.667Z,54.45
2022-08-19T08:21:31.543Z,54.17
2022-08-19T08:26:36.194Z,52.90
2022-08-19T08:31:44.065Z,52.85
2022-08-19T08:36:48.447Z,52.46
2022-08-19T08:42:10.006Z,52.03
2022-08-19T08:47:24.449Z,51.64
2022-08-19T08:52:36.517Z,51.82
2022-08-19T08:57:44.250Z,51.13
2022-08-19T09:02:50.764Z,51.26
2022-08-19T09:08:06.335Z,50.73
2022-08-19T09:13:10.142Z,49.37
2022-08-19T09:18:19.110Z,49.87
2022-08-19T09:23:26.612Z,49.46
2022-08-19T09:28:32.933Z,49.51
2022-08-19T09:33:37.295Z,49.93
2022-08-19T09:38:43.491Z,48.74
2022-08-19T09:43:53.468Z,48.57
2022-08-19T09:49:03.050Z,47.39
2022-08-19T09:54:11.642Z,47.89
2022-08-19T09:59:16.426Z,47.00
2022-08-19T10:04:43.453Z,46.97
2022-08-19T10:09:49.173Z,46.81
2022-08-19T10:14:55.169Z,46.68
2022-08-19T10:20:00.269Z,46.05
2022-08-19T10:25:05.859Z,45.91
2022-08-19T10:30:11.290Z,45.45
2022-08-19T10:35:21.803Z,45.18
2022-08-19T10:40:29.723Z,44.94
2022-08-19T10:45:33.247Z,44.98
2022-08-19T10:50:56.350Z,45.07
2022-08-19T10:56:18.545Z,44.54
2022-08-19T11:01:22.255Z,43.87
2022-08-19T11:06:26.924Z,43.69
2022-08-19T11:11:34.122Z,44.15
2022-08-19T11:16:43.850Z,43.18
2022-08-19T11:21:48.629Z,43.32
2022-08-19T11:27:00.360Z,43.28
2022-08-19T11:32:10.267Z,42.74
2022-08-19T11:37:14.008Z,42.74
2022-08-19T11:42:38.342Z,41.72
2022-08-19T11:47:41.777Z,42.18
2022-08-19T11:52:46.534Z,42.12
2022-08-19T11:57:50.184Z,41.78
2022-08-19T12:02:53.958Z,41.77
2022-08-19T12:07:57.544Z,41.43
2022-08-19T12:13:01.170Z,41.28
2022-08-19T12:18:10.719Z,41.31
2022-08-19T12:23:15.357Z,41.22
2022-08-19T12:28:24.774Z,41.26
2022-08-19T12:33:30.085Z,41.33
2022-08-19T12:38:35.554Z,40.88
2022-08-19T12:43:42.667Z,40.55
2022-08-19T12:48:46.658Z,40.19
2022-08-19T12:53:51.311Z,39.64
2022-08-19T12:58:55.489Z,39.46
2022-08-19T13:03:58.812Z,39.49
2022-08-19T13:09:01.895Z,39.42
2022-08-19T13:14:06.546Z,39.05
2022-08-19T13:19:11.981Z,38.72
2022-08-19T13:24:15.917Z,39.06
2022-08-19T13:29:38.241Z,39.09
2022-08-19T13:34:48.223Z,39.47
2022-08-19T13:39:51.820Z,39.96
2022-08-19T13:44:55.861Z,40.54
2022-08-19T13:49:59.727Z,40.71
2022-08-19T13:55:03.616Z,40.59
2022-08-19T14:00:12.023Z,39.65
2022-08-19T14:05:17.543Z,39.76
2022-08-19T14:10:22.293Z,40.24
2022-08-19T14:15:27.030Z,40.17
2022-08-19T14:20:31.185Z,40.13
2022-08-19T14:25:35.189Z,40.11
2022-08-19T14:30:39.061Z,40.46
2022-08-19T14:35:47.043Z,40.52
2022-08-19T14:40:51.013Z,40.51
2022-08-19T14:45:55.051Z,41.24
2022-08-19T14:50:58.462Z,41.97
2022-08-19T14:56:02.561Z,43.02
2022-08-19T15:01:06.438Z,44.32
2022-08-19T15:06:12.830Z,45.27
2022-08-19T15:11:21.718Z,45.92
2022-08-19T15:16:26.865Z,47.19
2022-08-19T15:21:31.305Z,47.52
2022-08-19T15:26:34.819Z,47.68
2022-08-19T15:31:39.012Z,47.01
2022-08-19T15:36:42.856Z,47.52
2022-08-19T15:41:47.512Z,47.58
2022-08-19T15:46:51.874Z,47.58
2022-08-19T15:51:58.848Z,49.31
2022-08-19T15:57:20.979Z,50.37
2022-08-19T16:02:48.533Z,50.46
2022-08-19T16:07:57.624Z,50.84
2022-08-19T16:13:06.679Z,51.07
2022-08-19T16:18:10.921Z,51.60
2022-08-19T16:23:14.447Z,52.03
2022-08-19T16:28:18.748Z,52.76
2022-08-19T16:33:23.180Z,53.42
2022-08-19T16:38:28.498Z,53.60
2022-08-19T16:43:32.643Z,53.87
2022-08-19T16:48:40.303Z,54.80
2022-08-19T16:53:45.400Z,55.60
2022-08-19T16:58:50.850Z,56.19
2022-08-19T17:03:56.274Z,56.66
2022-08-19T17:09:02.322Z,57.44
2022-08-19T17:14:08.892Z,57.68
2022-08-19T17:19:13.486Z,57.71
2022-08-19T17:24:18.350Z,58.12
2022-08-19T17:29:22.572Z,58.53
2022-08-19T17:34:27.803Z,59.25
2022-08-19T17:39:32.103Z,59.86
2022-08-19T17:44:50.727Z,60.06
2022-08-19T17:49:55.432Z,60.33
2022-08-19T17:54:59.340Z,60.56
2022-08-19T18:00:05.523Z,61.10
2022-08-19T18:05:13.771Z,61.57
2022-08-19T18:10:17.825Z,61.51
2022-08-19T18:15:23.162Z,61.69
2022-08-19T18:20:26.551Z,62.15
2022-08-19T18:25:30.238Z,62.29
2022-08-19T18:30:35.333Z,62.86
2022-08-19T18:35:39.878Z,63.40
2022-08-19T18:41:03.312Z,63.73
2022-08-19T18:46:45.259Z,64.00
2022-08-19T18:51:48.536Z,64.11
2022-08-19T18:56:56.072Z,64.00
2022-08-19T19:02:02.853Z,63.62
2022-08-19T19:07:07.360Z,63.74
2022-08-19T19:12:14.881Z,63.67
2022-08-19T19:17:27.704Z,64.38
2022-08-19T19:22:32.300Z,64.82
2022-08-19T19:27:37.172Z,65.70
2022-08-19T19:32:42.861Z,66.14
2022-08-19T19:37:53.390Z,66.44
2022-08-19T19:42:57.910Z,66.81
2022-08-19T19:48:01.730Z,65.85
2022-08-19T19:53:06.797Z,66.43
2022-08-19T19:58:10.792Z,66.76
2022-08-19T20:03:18.561Z,67.20
2022-08-19T20:08:43.182Z,67.97
2022-08-19T20:13:47.969Z,68.50
2022-08-19T20:18:52.992Z,68.62
2022-08-19T20:24:09.884Z,69.56
2022-08-19T20:29:37.996Z,70.09
2022-08-19T20:34:42.655Z,70.72
2022-08-19T20:39:47.810Z,71.29
2022-08-19T20:44:52.102Z,71.53
2022-08-19T20:49:57.280Z,71.72
2022-08-19T20:55:02.020Z,72.00
2022-08-19T21:00:11.508Z,72.52
2022-08-19T21:05:15.791Z,72.47
2022-08-19T21:10:23.337Z,72.65
2022-08-19T21:15:27.797Z,72.54
2022-08-19T21:20:31.919Z,72.51
2022-08-19T21:25:36.678Z,72.97
2022-08-19T21:30:42.323Z,73.29
2022-08-19T21:35:46.132Z,73.43
2022-08-19T21:40:50.890Z,73.72
2022-08-19T21:45:56.350Z,73.99
2022-08-19T21:51:00.778Z,74.10
2022-08-19T21:56:08.825Z,74.27
2022-08-19T22:01:13.764Z,74.27
2022-08-19T22:06:18.436Z,74.25
2022-08-19T22:11:26.577Z,74.56
2022-08-19T22:16:30.043Z,74.57
2022-08-19T22:21:40.491Z,75.13
2022-08-19T22:26:45.455Z,75.14
2022-08-19T22:31:54.534Z,75.71
2022-08-19T22:37:03.283Z,75.86
2022-08-19T22:42:08.353Z,75.83
2022-08-19T22:47:13.142Z,75.99
2022-08-19T22:52:21.421Z,75.87
2022-08-19T22:57:25.754Z,76.15
2022-08-19T23:02:38.765Z,76.09
2022-08-19T23:07:57.786Z,76.08
2022-08-19T23:13:03.203Z,75.86
2022-08-19T23:18:07.871Z,75.59
2022-08-19T23:23:19.889Z,76.26
2022-08-19T23:28:42.990Z,76.65
2022-08-19T23:33:51.469Z,76.81
2022-08-19T23:38:58.919Z,76.33
2022-08-19T23:44:03.925Z,76.60
2022-08-19T23:49:09.211Z,76.41
2022-08-19T23:54:12.623Z,77.04
2022-08-19T23:59:18.922Z,76.92
